Time;durP1;ratioP1;P1;durP2;ratioP2;P2;SDS_P1;SDS_P2;PMS_P1;PMS_P2;Temp;Humidity;BMP_temperature;BMP_pressure;BME280_temperature;BME280_humidity;BME280_pressure;Samples;Min_cycle;Max_cycle;Signal;HPM_P1;HPM_P2
2021/11/16 00:00:51;;;;;;;71.57;39.73;;;;;;;8.77;77.07;102966.56;2073949;28;20991;-61
2021/11/16 00:01:51;;;;;;;78.70;40.50;;;;;;;8.69;77.00;102968.38;2073814;28;20165;-61
2021/11/16 00:02:52;;;;;;;70.83;40.33;;;;;;;8.64;77.70;102957.63;2073814;28;20250;-62
2021/11/16 00:03:54;;;;;;;72.33;40.43;;;;;;;8.62;77.69;102965.44;2073860;28;20164;-61
2021/11/16 00:04:55;;;;;;;68.60;40.57;;;;;;;8.66;77.82;102965.56;2073232;28;20670;-61
2021/11/16 00:05:56;;;;;;;73.57;41.87;;;;;;;8.58;77.91;102956.31;2073799;28;20857;-62
2021/11/16 00:06:56;;;;;;;77.40;43.13;;;;;;;8.58;77.82;102969.31;2073865;28;20429;-61
2021/11/16 00:07:57;;;;;;;77.93;42.20;;;;;;;7.89;78.04;102867.91;2073764;28;20788;-61
2021/11/16 00:08:58;;;;;;;80.67;42.90;;;;;;;8.54;78.48;102965.66;2073761;28;20183;-61
2021/11/16 00:09:59;;;;;;;78.17;42.27;;;;;;;8.04;78.06;102878.09;2073987;28;20184;-61
2021/11/16 00:10:59;;;;;;;73.57;41.43;;;;;;;8.52;78.20;102962.47;2073712;28;20235;-61
2021/11/16 00:12:00;;;;;;;72.77;42.30;;;;;;;8.67;77.56;102969.91;2073713;28;20171;-61
2021/11/16 00:13:01;;;;;;;74.10;41.03;;;;;;;8.62;77.79;102970.97;2073811;28;20199;-62
2021/11/16 00:14:02;;;;;;;70.07;40.40;;;;;;;8.58;77.81;102966.56;2073576;28;20268;-61
2021/11/16 00:15:04;;;;;;;73.83;42.13;;;;;;;8.55;78.14;102964.50;2073399;28;20174;-61
2021/11/16 00:16:05;;;;;;;74.57;40.87;;;;;;;8.17;77.73;102895.34;2072989;28;20456;-61
2021/11/16 00:17:06;;;;;;;77.43;43.80;;;;;;;8.61;77.84;102968.59;2073039;28;20407;-61
2021/11/16 00:18:07;;;;;;;67.90;41.13;;;;;;;8.56;77.53;102966.13;2073797;28;20542;-61
2021/11/16 00:19:11;;;;;;;76.80;43.13;;;;;;;8.04;77.79;102894.69;2073662;28;20414;-62
2021/11/16 00:20:13;;;;;;;77.37;43.37;;;;;;;8.39;78.35;102961.00;2073573;28;20177;-62
2021/11/16 00:21:18;;;;;;;78.43;42.47;;;;;;;8.43;78.01;102968.22;2073528;28;20421;-62
2021/11/16 00:22:20;;;;;;;76.83;42.47;;;;;;;8.45;78.27;102962.34;2073745;28;20586;-61
2021/11/16 00:23:21;;;;;;;75.32;41.95;;;;;;;8.41;77.96;102964.22;2073532;28;20499;-61
2021/11/16 00:25:55;;;;;;;80.70;41.07;;;;;;;8.25;78.35;102964.25;2072144;28;20431;-61
2021/11/16 00:26:55;;;;;;;72.50;41.13;;;;;;;8.28;78.41;102960.78;2073623;28;20449;-62
2021/11/16 00:27:56;;;;;;;81.70;42.20;;;;;;;8.26;78.46;102963.06;2073430;28;20434;-61
2021/11/16 00:28:56;;;;;;;75.07;42.37;;;;;;;8.22;78.35;102964.97;2073707;28;20570;-62
2021/11/16 00:29:57;;;;;;;73.47;42.03;;;;;;;8.20;78.41;102958.22;2073389;28;20223;-62
2021/11/16 00:30:58;;;;;;;71.20;41.17;;;;;;;8.27;78.25;102969.41;2073672;28;20169;-61
2021/11/16 00:31:58;;;;;;;74.17;41.07;;;;;;;8.30;78.10;102963.19;2073386;28;20579;-61
2021/11/16 00:32:58;;;;;;;71.00;41.87;;;;;;;8.28;78.13;102969.06;2073661;28;20730;-61
2021/11/16 00:34:00;;;;;;;75.23;42.00;;;;;;;8.28;78.17;102962.72;2073420;28;20188;-62
2021/11/16 00:35:01;;;;;;;72.27;41.43;;;;;;;8.27;78.02;102967.47;2073384;28;20184;-62
2021/11/16 00:36:03;;;;;;;74.67;41.87;;;;;;;7.92;78.33;102896.75;2077153;28;20520;-62
2021/11/16 00:37:03;;;;;;;73.67;41.27;;;;;;;8.30;78.09;102954.88;2081936;28;20419;-61
2021/11/16 00:38:09;;;;;;;73.57;41.83;;;;;;;8.25;78.05;102961.47;2081230;28;20423;-61
2021/11/16 00:39:11;;;;;;;75.70;40.87;;;;;;;8.24;78.15;102957.13;2081760;28;20172;-61
2021/11/16 00:40:18;;;;;;;65.43;39.93;;;;;;;8.29;77.83;102953.25;2081485;28;20932;-61
2021/11/16 00:41:19;;;;;;;72.10;40.63;;;;;;;8.14;77.85;102931.97;2081634;28;20426;-61
2021/11/16 00:42:19;;;;;;;73.37;41.30;;;;;;;8.21;78.13;102959.81;2081493;28;20420;-61
2021/11/16 00:43:21;;;;;;;73.27;41.57;;;;;;;8.20;78.24;102960.97;2081662;28;20454;-61
2021/11/16 00:44:21;;;;;;;81.80;42.07;;;;;;;8.01;77.49;102927.75;2081123;28;20188;-61
2021/11/16 00:45:22;;;;;;;72.70;41.57;;;;;;;8.29;77.84;102956.84;2081249;28;20996;-61
2021/11/16 00:46:22;;;;;;;69.67;41.63;;;;;;;8.25;77.78;102961.47;2081479;28;20207;-62
2021/11/16 00:47:23;;;;;;;69.87;41.50;;;;;;;7.74;77.76;102882.53;2081615;28;20178;-61
2021/11/16 00:48:25;;;;;;;72.67;41.67;;;;;;;8.21;77.75;102963.34;2081467;28;20180;-61
2021/11/16 00:49:25;;;;;;;66.97;40.37;;;;;;;8.22;78.25;102961.41;2081642;28;20622;-61
2021/11/16 00:50:26;;;;;;;80.00;42.90;;;;;;;8.14;78.23;102965.94;2081335;28;20529;-62
2021/11/16 00:51:27;;;;;;;69.67;40.17;;;;;;;8.18;78.37;102966.00;2081781;28;20172;-61
2021/11/16 00:52:28;;;;;;;70.07;40.53;;;;;;;8.04;77.66;102943.59;2081424;28;20188;-61
2021/11/16 00:53:31;;;;;;;67.80;40.00;;;;;;;8.27;77.80;102967.47;2081702;28;20170;-62
2021/11/16 00:54:32;;;;;;;69.80;40.47;;;;;;;8.17;77.70;102945.06;2081035;28;20191;-61
2021/11/16 00:55:33;;;;;;;67.03;40.93;;;;;;;7.79;77.62;102870.44;2081303;28;20426;-61
2021/11/16 00:56:33;;;;;;;65.70;39.27;;;;;;;8.40;77.56;102962.63;2081328;28;20183;-61
2021/11/16 00:57:34;;;;;;;68.47;40.03;;;;;;;8.43;77.05;102968.22;2081469;28;20253;-61
2021/11/16 00:58:36;;;;;;;75.90;42.27;;;;;;;8.44;77.20;102972.56;2079376;28;20223;-61
2021/11/16 00:59:36;;;;;;;71.63;40.03;;;;;;;8.36;77.30;102964.50;2073466;28;20172;-61
2021/11/16 01:00:37;;;;;;;72.20;40.90;;;;;;;8.36;77.26;102967.25;2073084;28;20784;-61
2021/11/16 01:01:38;;;;;;;68.10;39.70;;;;;;;8.31;77.29;102960.03;2073285;28;20553;-61
2021/11/16 01:02:39;;;;;;;69.10;39.83;;;;;;;8.39;77.14;102961.81;2073139;28;20424;-61
2021/11/16 01:03:40;;;;;;;71.57;40.70;;;;;;;8.41;77.17;102976.03;2073369;28;20498;-62
2021/11/16 01:04:41;;;;;;;64.60;38.90;;;;;;;8.40;77.38;102982.75;2072835;28;20188;-61
2021/11/16 01:05:42;;;;;;;67.93;39.07;;;;;;;8.38;77.33;102976.78;2072984;28;20197;-61
2021/11/16 01:06:44;;;;;;;69.00;39.07;;;;;;;8.36;77.33;102986.59;2073226;28;20431;-62
2021/11/16 01:07:45;;;;;;;66.17;39.87;;;;;;;8.34;77.07;102975.91;2073230;28;20180;-62
2021/11/16 01:08:45;;;;;;;68.57;40.23;;;;;;;8.29;77.16;102978.94;2073306;28;20658;-61
2021/11/16 01:09:46;;;;;;;66.77;41.13;;;;;;;8.33;77.14;102984.53;2073084;28;20267;-61
2021/11/16 01:10:47;;;;;;;66.77;40.00;;;;;;;8.35;77.37;102976.72;2073142;28;20315;-62
2021/11/16 01:11:48;;;;;;;67.53;39.93;;;;;;;8.30;77.25;102977.00;2073024;28;20893;-61
2021/11/16 01:12:49;;;;;;;66.20;39.57;;;;;;;8.30;77.03;102983.31;2073269;28;20176;-61
2021/11/16 01:13:49;;;;;;;65.00;39.53;;;;;;;7.80;76.98;102917.00;2073137;28;20208;-61
2021/11/16 01:14:51;;;;;;;70.40;40.50;;;;;;;8.18;77.60;102985.34;2073059;28;20507;-61
2021/11/16 01:15:52;;;;;;;68.40;39.35;;;;;;;8.18;77.57;102983.41;2072901;28;20196;-61
2021/11/16 01:16:53;;;;;;;66.70;39.70;;;;;;;8.13;77.08;102969.84;2073154;28;20237;-61
2021/11/16 01:17:53;;;;;;;64.90;37.93;;;;;;;8.18;77.14;102986.16;2073089;28;20477;-61
2021/11/16 01:18:54;;;;;;;62.83;38.80;;;;;;;8.11;77.55;102985.19;2073259;28;20266;-61
2021/11/16 01:19:54;;;;;;;63.50;39.27;;;;;;;8.06;77.78;102979.94;2072988;28;20697;-62
2021/11/16 01:20:56;;;;;;;68.40;40.93;;;;;;;8.04;77.61;102985.03;2073233;28;20184;-61
2021/11/16 01:21:56;;;;;;;64.53;38.97;;;;;;;7.97;77.63;102971.84;2073150;28;20177;-61
2021/11/16 01:22:59;;;;;;;65.90;39.87;;;;;;;8.06;78.03;102988.22;2073083;28;20478;-61
2021/11/16 01:24:00;;;;;;;66.43;39.67;;;;;;;8.06;77.91;102971.66;2073031;28;20176;-62
2021/11/16 01:25:01;;;;;;;63.67;38.07;;;;;;;8.05;77.94;102972.81;2072849;28;20427;-61
2021/11/16 01:26:02;;;;;;;67.83;40.97;;;;;;;8.05;77.95;102987.41;2072732;28;20502;-61
2021/11/16 01:27:02;;;;;;;65.80;39.27;;;;;;;8.04;77.87;102977.53;2073287;28;20227;-61
2021/11/16 01:28:10;;;;;;;65.17;41.07;;;;;;;8.03;77.86;102977.88;2072944;28;20181;-62
2021/11/16 01:29:11;;;;;;;66.68;39.17;;;;;;;8.00;77.76;102978.63;2073135;28;20185;-61
2021/11/16 01:30:17;;;;;;;65.97;39.67;;;;;;;7.22;77.83;102867.47;2072986;28;20170;-61
2021/11/16 01:31:18;;;;;;;64.97;40.10;;;;;;;7.85;78.25;102977.44;2073142;28;20159;-61
2021/11/16 01:32:34;;;;;;;68.60;39.07;;;;;;;7.81;78.59;102968.31;2072917;28;20639;-61
2021/11/16 01:33:42;;;;;;;65.82;38.05;;;;;;;7.84;78.24;102973.09;2073170;28;20687;-62
2021/11/16 01:34:46;;;;;;;70.03;39.47;;;;;;;7.85;78.47;102973.91;2080281;28;20181;-61
2021/11/16 01:35:48;;;;;;;71.13;40.55;;;;;;;7.84;78.23;102970.34;2082031;28;20580;-61
2021/11/16 01:36:48;;;;;;;66.35;38.17;;;;;;;7.87;77.88;102974.34;2081039;28;20674;-61
2021/11/16 01:37:49;;;;;;;64.63;37.90;;;;;;;7.79;78.13;102954.03;2081161;28;20169;-61
2021/11/16 01:38:52;;;;;;;63.40;38.00;;;;;;;7.93;77.65;102970.13;2081157;28;20177;-61
2021/11/16 01:39:53;;;;;;;68.57;39.28;;;;;;;7.92;77.74;102972.13;2081025;28;20158;-61
2021/11/16 01:40:53;;;;;;;68.73;39.47;;;;;;;7.89;77.57;102969.28;2080996;28;20180;-62
2021/11/16 01:41:55;;;;;;;65.27;41.03;;;;;;;7.45;77.90;102907.88;2081162;28;20177;-61
2021/11/16 01:42:55;;;;;;;63.35;38.58;;;;;;;7.88;77.54;102960.19;2081137;28;20188;-61
2021/11/16 01:43:56;;;;;;;65.00;39.13;;;;;;;7.34;77.52;102879.19;2081127;28;20256;-61
2021/11/16 01:44:57;;;;;;;69.80;39.78;;;;;;;7.47;77.30;102899.22;2080606;28;20184;-61
2021/11/16 01:46:00;;;;;;;66.53;39.43;;;;;;;7.85;77.22;102963.66;2081120;28;20175;-61
2021/11/16 01:47:01;;;;;;;66.00;38.63;;;;;;;7.64;77.44;102954.84;2080830;28;20165;-61
2021/11/16 01:48:02;;;;;;;68.87;40.43;;;;;;;7.71;77.92;102965.28;2081098;28;20300;-61
2021/11/16 01:49:04;;;;;;;71.40;39.55;;;;;;;7.68;78.17;102971.53;2081065;28;20227;-62
2021/11/16 01:50:06;;;;;;;69.35;39.35;;;;;;;7.69;77.91;102967.59;2080297;28;20173;-61
2021/11/16 01:51:07;;;;;;;71.43;39.97;;;;;;;7.66;77.96;102971.06;2080961;28;20204;-61
2021/11/16 01:52:08;;;;;;;73.03;39.07;;;;;;;7.45;78.23;102943.75;2081113;28;20162;-62
2021/11/16 01:53:08;;;;;;;70.47;39.27;;;;;;;7.52;78.07;102946.66;2081038;28;20193;-61
2021/11/16 01:54:09;;;;;;;71.77;39.40;;;;;;;7.63;78.05;102956.00;2080678;28;20161;-61
2021/11/16 01:55:11;;;;;;;62.37;39.83;;;;;;;7.64;78.04;102960.38;2080674;28;20221;-61
2021/11/16 01:56:12;;;;;;;67.82;37.92;;;;;;;7.58;78.09;102950.75;2081004;28;20639;-61
2021/11/16 01:57:13;;;;;;;69.95;39.17;;;;;;;6.93;78.34;102871.41;2080718;28;20572;-61
2021/11/16 01:58:14;;;;;;;71.73;40.67;;;;;;;7.46;78.54;102959.13;2080987;28;20170;-61
2021/11/16 01:59:18;;;;;;;69.10;38.50;;;;;;;7.47;78.89;102962.66;2081104;28;20177;-61
2021/11/16 02:00:23;;;;;;;64.63;38.40;;;;;;;7.41;78.25;102964.91;2080896;28;20185;-61
2021/11/16 02:01:23;;;;;;;66.35;40.05;;;;;;;7.41;78.47;102962.16;2080857;28;20184;-62
2021/11/16 02:02:24;;;;;;;62.53;37.47;;;;;;;7.38;78.24;102960.09;2080900;28;20643;-61
2021/11/16 02:03:24;;;;;;;68.43;40.13;;;;;;;7.36;78.82;102959.66;2080848;28;20268;-62
2021/11/16 02:04:25;;;;;;;71.90;39.87;;;;;;;7.36;78.78;102965.16;2080691;28;20553;-61
2021/11/16 02:05:38;;;;;;;63.40;37.63;;;;;;;7.29;78.86;102969.69;2080790;28;20204;-61
2021/11/16 02:06:40;;;;;;;67.93;39.75;;;;;;;6.34;78.73;102817.44;2080723;28;20669;-61
2021/11/16 02:07:44;;;;;;;65.05;39.28;;;;;;;7.22;79.12;102964.78;2080848;28;20185;-61
2021/11/16 02:08:46;;;;;;;64.25;38.85;;;;;;;7.30;78.70;102968.53;2080971;28;20684;-62
2021/11/16 02:09:47;;;;;;;65.65;38.92;;;;;;;7.30;78.66;102965.78;2088243;28;20183;-61
2021/11/16 02:10:52;;;;;;;68.00;38.90;;;;;;;7.22;78.96;102972.28;2088564;28;20172;-61
2021/11/16 02:11:53;;;;;;;67.22;38.47;;;;;;;7.18;78.76;102961.13;2080676;28;20226;-61
2021/11/16 02:12:54;;;;;;;62.17;36.85;;;;;;;7.10;78.90;102950.25;2080813;28;20241;-61
2021/11/16 02:13:55;;;;;;;58.17;37.37;;;;;;;7.12;78.19;102959.00;2080751;28;20203;-61
2021/11/16 02:14:55;;;;;;;61.28;37.47;;;;;;;7.13;78.85;102971.63;2080576;28;20208;-61
2021/11/16 02:15:56;;;;;;;60.43;37.47;;;;;;;7.16;78.69;102971.72;2088254;28;20172;-60
2021/11/16 02:16:57;;;;;;;59.13;37.37;;;;;;;7.13;78.52;102966.09;2088286;28;20176;-61
2021/11/16 02:17:58;;;;;;;59.42;37.45;;;;;;;7.01;78.68;102957.88;2080764;28;20153;-61
2021/11/16 02:19:00;;;;;;;57.37;36.20;;;;;;;7.07;78.64;102967.53;2080822;28;20177;-61
2021/11/16 02:20:01;;;;;;;57.13;34.67;;;;;;;7.02;78.98;102968.56;2080627;28;20180;-61
2021/11/16 02:21:03;;;;;;;60.00;36.60;;;;;;;7.07;78.34;102970.28;2080849;28;20181;-62
2021/11/16 02:22:03;;;;;;;54.25;34.95;;;;;;;7.11;78.41;102971.16;2080705;28;20183;-61
2021/11/16 02:23:05;;;;;;;51.40;35.57;;;;;;;7.10;78.14;102961.28;2080849;28;20164;-61
2021/11/16 02:24:07;;;;;;;49.40;33.33;;;;;;;7.09;78.18;102976.25;2080509;28;20180;-61
2021/11/16 02:25:08;;;;;;;53.85;34.60;;;;;;;7.09;78.44;102960.50;2080908;28;20660;-62
2021/11/16 02:26:10;;;;;;;50.37;35.10;;;;;;;7.13;78.09;102957.84;2080847;28;20254;-61
2021/11/16 02:27:10;;;;;;;49.40;32.80;;;;;;;7.17;77.52;102962.28;2080651;28;20388;-61
2021/11/16 02:28:13;;;;;;;52.20;34.33;;;;;;;6.89;77.73;102924.88;2080835;28;20169;-61
2021/11/16 02:29:15;;;;;;;50.47;33.20;;;;;;;7.09;77.20;102965.22;2080723;28;20186;-61
2021/11/16 02:30:16;;;;;;;45.70;31.00;;;;;;;7.06;77.68;102960.38;2080808;28;20647;-61
2021/11/16 02:31:17;;;;;;;43.03;31.60;;;;;;;7.14;77.03;102957.50;2080771;28;20567;-61
2021/11/16 02:32:18;;;;;;;44.83;31.35;;;;;;;7.17;77.10;102962.28;2080639;28;20434;-61
2021/11/16 02:33:18;;;;;;;45.20;31.03;;;;;;;7.18;77.33;102952.84;2080737;28;20165;-61
2021/11/16 02:34:19;;;;;;;42.77;31.57;;;;;;;7.15;76.66;102952.75;2080510;28;20175;-61
2021/11/16 02:35:22;;;;;;;40.30;29.80;;;;;;;7.18;76.58;102949.31;2080657;28;20157;-61
2021/11/16 02:36:30;;;;;;;42.90;29.98;;;;;;;6.97;76.69;102915.66;2081327;28;20272;-61
2021/11/16 02:37:33;;;;;;;40.83;29.45;;;;;;;7.17;76.22;102953.22;2079084;28;20188;-61
2021/11/16 02:38:35;;;;;;;43.85;30.20;;;;;;;7.17;76.58;102950.47;2072495;28;20277;-61
2021/11/16 02:39:36;;;;;;;43.13;30.35;;;;;;;6.68;76.12;102871.91;2072604;28;20237;-61
2021/11/16 02:40:37;;;;;;;41.17;29.90;;;;;;;7.21;76.18;102946.63;2072438;28;20197;-61
2021/11/16 02:41:40;;;;;;;42.63;29.73;;;;;;;7.23;75.69;102951.81;2072532;28;20177;-61
2021/11/16 02:42:42;;;;;;;39.30;29.30;;;;;;;6.72;75.78;102857.06;2072531;28;20178;-61
2021/11/16 02:43:44;;;;;;;38.55;27.92;;;;;;;6.81;75.53;102876.22;2072419;28;20159;-61
2021/11/16 02:44:46;;;;;;;42.45;30.13;;;;;;;7.29;75.73;102955.91;2072309;28;20178;-61
2021/11/16 02:45:47;;;;;;;37.65;28.10;;;;;;;7.21;75.50;102932.03;2072380;28;20217;-61
2021/11/16 02:46:51;;;;;;;35.00;27.27;;;;;;;7.27;75.39;102945.22;2072693;28;20217;-61
2021/11/16 02:47:51;;;;;;;38.58;28.95;;;;;;;7.27;75.11;102942.47;2072239;28;20584;-61
2021/11/16 02:48:52;;;;;;;41.63;29.20;;;;;;;7.00;75.38;102906.66;2072611;28;20213;-61
2021/11/16 02:49:56;;;;;;;41.93;28.77;;;;;;;7.26;74.97;102951.91;2072413;28;20685;-62
2021/11/16 02:51:00;;;;;;;38.60;27.77;;;;;;;7.27;75.27;102950.72;2072584;28;20228;-61
2021/11/16 02:52:00;;;;;;;38.42;28.60;;;;;;;7.27;75.31;102952.69;2072393;28;20259;-62
2021/11/16 02:53:01;;;;;;;36.67;28.37;;;;;;;7.29;74.92;102953.94;2072436;28;20224;-61
2021/11/16 02:54:09;;;;;;;36.87;27.30;;;;;;;7.31;74.83;102959.09;2072310;28;20180;-61
2021/11/16 02:55:10;;;;;;;39.92;28.77;;;;;;;7.25;75.23;102966.84;2072483;28;20221;-61
2021/11/16 02:56:11;;;;;;;39.20;28.97;;;;;;;7.27;74.99;102970.03;2072422;28;20183;-61
2021/11/16 02:57:12;;;;;;;36.87;28.30;;;;;;;7.31;74.41;102972.88;2072563;28;20247;-61
2021/11/16 02:58:15;;;;;;;37.45;29.17;;;;;;;7.31;74.54;102972.88;2072212;28;20171;-61
2021/11/16 02:59:16;;;;;;;39.67;30.35;;;;;;;7.26;74.41;102975.91;2072516;28;20177;-61
2021/11/16 03:00:17;;;;;;;40.30;30.50;;;;;;;7.18;74.37;102963.88;2072294;28;20189;-62
2021/11/16 03:01:19;;;;;;;39.50;30.02;;;;;;;7.27;74.54;102969.22;2073190;28;20659;-62
2021/11/16 03:02:20;;;;;;;38.38;29.63;;;;;;;7.29;74.75;102970.47;2074009;28;20182;-61
2021/11/16 03:03:21;;;;;;;38.28;29.67;;;;;;;6.83;74.44;102894.00;2074285;28;20185;-61
2021/11/16 03:04:22;;;;;;;38.43;28.67;;;;;;;7.35;74.78;102971.03;2073852;28;20369;-61
2021/11/16 03:05:23;;;;;;;41.72;29.15;;;;;;;7.40;74.20;102971.59;2074156;28;21008;-61
2021/11/16 03:06:24;;;;;;;37.67;29.00;;;;;;;7.31;74.22;102948.88;2074048;28;20569;-61
2021/11/16 03:07:33;;;;;;;42.10;29.47;;;;;;;7.43;74.30;102970.84;2074207;28;20256;-61
2021/11/16 03:08:35;;;;;;;39.33;30.73;;;;;;;7.45;74.48;102976.84;2073190;28;20192;-61
2021/11/16 03:09:35;;;;;;;36.92;28.23;;;;;;;7.48;74.36;102967.06;2073511;28;20231;-61
2021/11/16 03:10:36;;;;;;;41.03;29.07;;;;;;;7.49;74.20;102971.41;2074076;28;20185;-61
2021/11/16 03:11:37;;;;;;;39.90;30.07;;;;;;;7.38;74.41;102970.34;2074112;28;20640;-61
2021/11/16 03:12:38;;;;;;;41.67;31.00;;;;;;;6.50;74.26;102843.06;2073892;28;20655;-61
2021/11/16 03:13:39;;;;;;;45.30;31.75;;;;;;;7.26;74.37;102968.44;2074181;28;20557;-61
2021/11/16 03:14:40;;;;;;;45.88;31.92;;;;;;;7.30;74.28;102974.88;2073695;28;20257;-61
2021/11/16 03:15:59;;;;;;;41.13;30.57;;;;;;;6.82;74.52;102886.09;2074485;28;20162;-61
2021/11/16 03:16:59;;;;;;;44.35;31.42;;;;;;;7.35;74.56;102971.84;2074154;28;20162;-61
2021/11/16 03:18:00;;;;;;;39.87;29.97;;;;;;;7.35;74.77;102968.28;2073883;28;20789;-61
2021/11/16 03:19:01;;;;;;;42.77;30.33;;;;;;;7.38;74.53;102964.81;2073950;28;20206;-61
2021/11/16 03:20:08;;;;;;;41.73;31.07;;;;;;;7.40;74.31;102963.31;2073859;28;20253;-61
2021/11/16 03:21:11;;;;;;;43.97;31.27;;;;;;;7.42;74.70;102961.00;2073984;28;20636;-61
2021/11/16 03:22:12;;;;;;;41.65;31.40;;;;;;;7.43;74.88;102967.31;2073966;28;20170;-61
2021/11/16 03:23:16;;;;;;;43.93;31.73;;;;;;;7.44;74.38;102964.19;2074048;28;20174;-61
2021/11/16 03:24:16;;;;;;;42.40;30.25;;;;;;;7.42;74.60;102961.00;2073937;28;20175;-62
2021/11/16 03:25:19;;;;;;;46.33;32.20;;;;;;;7.04;74.28;102899.28;2073858;28;20236;-62
2021/11/16 03:26:22;;;;;;;42.80;31.30;;;;;;;7.53;74.27;102975.84;2074020;28;20188;-61
2021/11/16 03:27:29;;;;;;;44.83;31.47;;;;;;;7.21;74.41;102910.78;2073929;28;20178;-61
2021/11/16 03:28:34;;;;;;;43.30;31.10;;;;;;;7.56;74.33;102971.59;2073779;28;20421;-62
2021/11/16 03:29:37;;;;;;;42.15;30.23;;;;;;;7.58;74.28;102974.81;2073943;28;20165;-61
2021/11/16 03:30:39;;;;;;;44.33;31.07;;;;;;;7.59;74.05;102970.88;2074072;28;20203;-61
2021/11/16 03:31:48;;;;;;;44.00;32.30;;;;;;;7.62;74.11;102975.69;2073897;28;20804;-61
2021/11/16 03:32:49;;;;;;;43.35;30.67;;;;;;;6.98;74.29;102868.41;2074142;28;20167;-61
2021/11/16 03:33:50;;;;;;;42.53;30.88;;;;;;;7.62;74.56;102965.44;2073820;28;20227;-62
2021/11/16 03:34:51;;;;;;;41.93;30.13;;;;;;;7.64;74.43;102976.91;2073686;28;20667;-61
2021/11/16 03:35:52;;;;;;;44.60;30.77;;;;;;;7.66;74.56;102982.91;2076371;28;20705;-61
2021/11/16 03:36:53;;;;;;;41.33;30.27;;;;;;;7.68;73.88;102977.81;2082252;28;20174;-62
2021/11/16 03:37:58;;;;;;;43.07;30.63;;;;;;;7.70;73.81;102981.00;2081996;28;20658;-61
2021/11/16 03:39:01;;;;;;;39.83;29.20;;;;;;;7.53;73.68;102958.50;2081985;28;20186;-62
2021/11/16 03:40:03;;;;;;;39.67;29.52;;;;;;;7.69;73.58;102973.13;2081915;28;20418;-61
2021/11/16 03:41:05;;;;;;;39.93;29.97;;;;;;;7.10;73.82;102875.81;2082091;28;20167;-61
2021/11/16 03:42:07;;;;;;;40.07;29.57;;;;;;;7.38;73.47;102920.69;2081960;28;20451;-61
2021/11/16 03:43:12;;;;;;;39.27;29.23;;;;;;;7.78;73.38;102984.75;2082057;28;20509;-61
2021/11/16 03:44:13;;;;;;;39.03;29.50;;;;;;;7.77;73.25;102988.69;2081643;28;20397;-61
2021/11/16 03:45:16;;;;;;;42.17;29.33;;;;;;;7.65;73.37;102989.59;2082011;28;20198;-61
2021/11/16 03:46:17;;;;;;;39.58;29.15;;;;;;;7.65;73.18;102988.78;2081964;28;20174;-61
2021/11/16 03:47:19;;;;;;;39.92;29.52;;;;;;;7.65;73.47;102992.34;2082010;28;20200;-61
2021/11/16 03:48:20;;;;;;;41.20;28.80;;;;;;;7.68;73.67;102990.84;2081975;28;20184;-61
2021/11/16 03:49:21;;;;;;;37.00;28.13;;;;;;;7.68;73.56;102977.81;2082023;28;20262;-61
2021/11/16 03:50:24;;;;;;;39.03;29.30;;;;;;;7.72;73.48;102988.94;2081898;28;20212;-61
2021/11/16 03:51:25;;;;;;;37.15;27.75;;;;;;;7.14;73.21;102883.03;2082096;28;20187;-61
2021/11/16 03:52:26;;;;;;;36.13;27.37;;;;;;;7.74;73.40;102975.59;2081881;28;20719;-61
2021/11/16 03:53:27;;;;;;;38.90;29.03;;;;;;;7.72;73.24;102980.66;2081986;28;20577;-61
2021/11/16 03:54:28;;;;;;;38.60;28.67;;;;;;;7.74;73.02;102983.88;2081685;28;20165;-61
2021/11/16 03:55:32;;;;;;;39.20;28.50;;;;;;;7.77;73.32;102985.91;2081797;28;20544;-61
2021/11/16 03:56:33;;;;;;;37.50;28.13;;;;;;;7.79;73.18;102984.41;2081779;28;20269;-61
2021/11/16 03:57:35;;;;;;;39.08;28.58;;;;;;;7.77;73.07;102985.91;2081968;28;20172;-61
2021/11/16 03:58:37;;;;;;;36.78;28.08;;;;;;;7.72;72.82;102983.44;2081649;28;20177;-62
2021/11/16 03:59:38;;;;;;;35.20;27.15;;;;;;;7.66;72.56;102982.91;2081912;28;20216;-61
2021/11/16 04:00:43;;;;;;;38.27;28.37;;;;;;;6.86;72.87;102870.44;2089369;28;20237;-61
2021/11/16 04:01:44;;;;;;;38.87;28.03;;;;;;;7.54;72.83;102979.44;2088891;28;20210;-61
2021/11/16 04:02:45;;;;;;;41.57;29.07;;;;;;;7.35;73.00;102966.34;2081801;28;20419;-62
2021/11/16 04:03:46;;;;;;;38.23;28.97;;;;;;;7.33;73.36;102965.88;2081918;28;20183;-61
2021/11/16 04:04:50;;;;;;;39.10;28.23;;;;;;;7.47;73.35;102979.22;2081618;28;20180;-61
2021/11/16 04:05:52;;;;;;;37.45;28.38;;;;;;;7.46;73.55;102980.38;2081905;28;20237;-61
2021/11/16 04:06:53;;;;;;;39.10;27.60;;;;;;;7.50;73.52;102979.34;2081884;28;20169;-61
2021/11/16 04:07:54;;;;;;;35.17;27.50;;;;;;;7.45;73.26;102968.56;2081820;28;20178;-62
2021/11/16 04:08:58;;;;;;;36.00;26.83;;;;;;;7.50;73.41;102978.53;2081638;28;20695;-61
2021/11/16 04:09:58;;;;;;;37.90;27.40;;;;;;;7.06;73.00;102914.31;2081736;28;20176;-61
2021/11/16 04:10:59;;;;;;;36.70;28.47;;;;;;;7.44;73.54;102977.97;2081853;28;20160;-62
2021/11/16 04:12:00;;;;;;;39.40;28.17;;;;;;;7.47;73.35;102985.56;2081810;28;20352;-61
2021/11/16 04:13:01;;;;;;;36.47;26.77;;;;;;;7.51;73.18;102983.69;2081009;28;20215;-61
2021/11/16 04:14:01;;;;;;;36.50;26.75;;;;;;;7.47;73.30;102980.03;2081589;28;20719;-61
2021/11/16 04:15:03;;;;;;;37.77;27.37;;;;;;;7.47;73.54;102984.75;2081697;28;20581;-61
2021/11/16 04:16:04;;;;;;;35.67;27.10;;;;;;;7.49;73.03;102980.47;2081696;28;20185;-61
2021/11/16 04:17:05;;;;;;;35.03;26.63;;;;;;;7.55;73.61;102978.25;2081781;28;20403;-61
2021/11/16 04:18:06;;;;;;;37.63;26.90;;;;;;;7.56;73.28;102980.69;2081645;28;20424;-61
2021/11/16 04:19:07;;;;;;;34.47;26.00;;;;;;;7.59;73.19;102979.16;2081659;28;20543;-61
2021/11/16 04:20:17;;;;;;;34.33;26.30;;;;;;;7.59;72.75;102985.47;2081785;28;20186;-61
2021/11/16 04:21:17;;;;;;;33.43;25.37;;;;;;;7.61;73.43;102982.34;2081708;28;20201;-61
2021/11/16 04:22:18;;;;;;;36.47;27.07;;;;;;;7.13;72.70;102897.19;2081706;28;20506;-61
2021/11/16 04:23:18;;;;;;;33.50;25.50;;;;;;;7.49;72.60;102966.69;2076906;28;20170;-61
2021/11/16 04:24:19;;;;;;;35.13;25.80;;;;;;;7.35;73.12;102937.94;2073298;28;20728;-61
2021/11/16 04:25:20;;;;;;;34.67;25.73;;;;;;;7.63;72.69;102983.59;2073468;28;20183;-61
2021/11/16 04:26:22;;;;;;;33.80;25.33;;;;;;;7.63;72.38;102983.59;2073528;28;20663;-61
2021/11/16 04:27:23;;;;;;;34.40;24.92;;;;;;;7.60;72.78;102978.81;2073578;28;20558;-61
2021/11/16 04:28:24;;;;;;;31.80;23.92;;;;;;;7.60;72.30;102975.25;2073291;28;20178;-61
2021/11/16 04:29:24;;;;;;;34.70;25.97;;;;;;;7.55;72.28;102965.28;2073426;28;20636;-61
2021/11/16 04:30:27;;;;;;;36.37;26.00;;;;;;;7.66;72.54;102979.34;2073386;28;20475;-61
2021/11/16 04:31:28;;;;;;;31.42;24.67;;;;;;;7.67;72.80;102970.72;2073587;28;20192;-61
2021/11/16 04:32:29;;;;;;;31.73;24.88;;;;;;;7.71;72.39;102977.13;2073359;28;20239;-61
2021/11/16 04:33:29;;;;;;;31.30;23.80;;;;;;;7.57;72.28;102954.69;2073430;28;20318;-61
2021/11/16 04:34:30;;;;;;;31.93;24.77;;;;;;;7.75;72.23;102978.00;2073084;28;20259;-61
2021/11/16 04:35:31;;;;;;;33.53;24.53;;;;;;;7.75;71.67;102982.72;2073485;28;20170;-61
2021/11/16 04:36:34;;;;;;;32.55;24.40;;;;;;;7.75;72.26;102979.97;2073308;28;20745;-61
2021/11/16 04:37:34;;;;;;;31.42;23.70;;;;;;;7.68;72.03;102977.81;2073565;28;20699;-62
2021/11/16 04:38:34;;;;;;;33.83;24.50;;;;;;;7.70;72.03;102980.22;2073410;28;20530;-61
2021/11/16 04:39:35;;;;;;;31.67;24.60;;;;;;;7.70;71.82;102977.47;2073412;28;20212;-61
2021/11/16 04:40:41;;;;;;;31.73;24.43;;;;;;;7.73;71.99;102974.78;2073225;28;20917;-62
2021/11/16 04:41:44;;;;;;;32.00;24.27;;;;;;;7.74;71.92;102984.66;2073500;28;20168;-61
2021/11/16 04:42:45;;;;;;;31.75;23.60;;;;;;;7.75;71.73;102980.75;2073503;28;20174;-61
2021/11/16 04:43:45;;;;;;;29.73;23.00;;;;;;;7.74;72.01;102975.59;2073369;28;20205;-61
2021/11/16 04:44:47;;;;;;;30.30;22.97;;;;;;;7.24;71.66;102895.47;2072965;28;20184;-61
2021/11/16 04:45:54;;;;;;;30.00;22.92;;;;;;;7.78;72.00;102977.28;2073257;28;20221;-61